Time;durP1;ratioP1;P1;durP2;ratioP2;P2;SDS_P1;SDS_P2;PMS_P1;PMS_P2;Temp;Humidity;BMP_temperature;BMP_pressure;BME280_temperature;BME280_humidity;BME280_pressure;Samples;Min_cycle;Max_cycle;Signal;HPM_P1;HPM_P2
2022/05/15 00:00:57;;;;;;;7.63;5.33;;;11.10;63.20;;;;;;5055056;28;46684;-62
2022/05/15 00:03:24;;;;;;;9.40;6.40;;;11.00;61.90;;;;;;5050581;28;46397;-63
2022/05/15 00:06:03;;;;;;;9.17;6.47;;;11.00;62.00;;;;;;5053141;28;46582;-62
2022/05/15 00:08:32;;;;;;;17.17;6.50;;;11.00;62.30;;;;;;5050376;28;46325;-62
2022/05/15 00:10:59;;;;;;;12.40;6.10;;;11.00;62.20;;;;;;5050563;28;46652;-62
2022/05/15 00:13:26;;;;;;;10.37;6.30;;;11.00;62.30;;;;;;5050978;28;45884;-63
2022/05/15 00:15:52;;;;;;;12.60;6.53;;;11.00;62.30;;;;;;5048270;28;46585;-63
2022/05/15 00:18:20;;;;;;;9.00;6.10;;;11.00;62.40;;;;;;5050634;28;46443;-63
2022/05/15 00:20:47;;;;;;;10.40;6.33;;;11.00;62.40;;;;;;5051240;28;46365;-62
2022/05/15 00:23:14;;;;;;;7.20;5.33;;;11.00;62.40;;;;;;5048377;28;45841;-63
2022/05/15 00:25:40;;;;;;;12.73;6.07;;;10.90;62.30;;;;;;5049838;28;46344;-63
2022/05/15 00:28:07;;;;;;;10.10;6.27;;;10.90;62.30;;;;;;5047652;28;46280;-63
2022/05/15 00:30:35;;;;;;;10.70;6.13;;;10.90;62.30;;;;;;5048742;28;46424;-62
2022/05/15 00:33:01;;;;;;;12.33;5.70;;;10.90;62.30;;;;;;5050040;28;46425;-62
2022/05/15 00:35:27;;;;;;;8.33;6.10;;;10.90;62.40;;;;;;5048229;28;46546;-63
2022/05/15 00:37:53;;;;;;;9.73;6.27;;;10.90;62.40;;;;;;5053574;28;46477;-63
2022/05/15 00:40:21;;;;;;;12.63;6.30;;;10.90;62.40;;;;;;5045024;28;46434;-63
2022/05/15 00:42:47;;;;;;;9.73;5.30;;;10.90;62.50;;;;;;5051069;28;46468;-63
2022/05/15 00:45:16;;;;;;;16.47;7.00;;;10.90;62.60;;;;;;5048709;28;47345;-64
2022/05/15 00:47:42;;;;;;;10.23;6.30;;;10.80;62.80;;;;;;5052581;28;47290;-63
2022/05/15 00:50:13;;;;;;;8.37;5.63;;;10.80;62.80;;;;;;5052007;28;46374;-64
2022/05/15 00:52:43;;;;;;;11.83;5.30;;;10.80;63.10;;;;;;5044778;28;46547;-62
2022/05/15 00:55:24;;;;;;;12.90;5.90;;;10.70;63.00;;;;;;5051581;28;46938;-62
2022/05/15 00:57:56;;;;;;;8.30;5.87;;;10.70;63.40;;;;;;5053867;28;45772;-62
2022/05/15 01:00:26;;;;;;;6.90;5.23;;;10.70;63.50;;;;;;5049779;28;46294;-62
2022/05/15 01:03:10;;;;;;;10.23;5.90;;;10.60;63.50;;;;;;5048960;28;46930;-63
2022/05/15 01:05:46;;;;;;;12.00;5.83;;;10.60;63.60;;;;;;5050839;28;46760;-63
2022/05/15 01:08:11;;;;;;;7.10;4.60;;;10.50;63.60;;;;;;5050462;28;46317;-63
2022/05/15 01:10:42;;;;;;;8.80;5.20;;;10.50;63.70;;;;;;5048951;28;46310;-63
2022/05/15 01:13:10;;;;;;;9.23;4.93;;;10.40;63.70;;;;;;5051081;28;46420;-63
2022/05/15 01:15:37;;;;;;;7.33;5.17;;;10.40;64.00;;;;;;5044342;28;46706;-61
2022/05/15 01:18:04;;;;;;;10.57;5.37;;;10.30;64.00;;;;;;5055301;28;46254;-63
2022/05/15 01:20:30;;;;;;;14.23;5.80;;;10.30;64.00;;;;;;5048913;28;46399;-62
2022/05/15 01:22:56;;;;;;;7.80;5.40;;;10.30;64.00;;;;;;5051415;28;46492;-63
2022/05/15 01:25:27;;;;;;;20.77;6.87;;;10.30;64.00;;;;;;5052147;28;46477;-63
2022/05/15 01:28:12;;;;;;;9.30;6.30;;;10.40;65.10;;;;;;5049420;28;46310;-63
2022/05/15 01:30:41;;;;;;;7.33;5.67;;;10.40;64.00;;;;;;5052331;28;46703;-63
2022/05/15 01:33:07;;;;;;;10.97;5.90;;;10.40;63.60;;;;;;5048003;28;45938;-63
2022/05/15 01:35:32;;;;;;;8.00;5.50;;;10.40;63.70;;;;;;5051695;28;46046;-63
2022/05/15 01:37:58;;;;;;;8.70;5.30;;;10.30;63.80;;;;;;5050073;28;46339;-62
2022/05/15 01:40:23;;;;;;;14.07;4.80;;;10.20;63.80;;;;;;5049595;28;46424;-64
2022/05/15 01:42:49;;;;;;;10.63;4.50;;;10.20;64.20;;;;;;5051350;28;46393;-64
2022/05/15 01:45:15;;;;;;;6.70;4.43;;;10.10;64.50;;;;;;5048880;28;47042;-63
2022/05/15 01:47:41;;;;;;;6.40;4.23;;;10.00;64.40;;;;;;5049803;28;46629;-63
2022/05/15 01:50:09;;;;;;;8.97;4.53;;;9.90;65.30;;;;;;5049164;28;46356;-62
2022/05/15 01:52:35;;;;;;;9.00;5.20;;;9.90;65.30;;;;;;5049783;28;46518;-62
2022/05/15 01:55:01;;;;;;;8.70;4.83;;;9.90;65.30;;;;;;5050702;28;47329;-63
2022/05/15 01:57:26;;;;;;;11.00;5.93;;;9.80;65.20;;;;;;5047746;28;46452;-63
2022/05/15 01:59:52;;;;;;;12.00;5.60;;;9.80;65.20;;;;;;5046025;28;46448;-62
2022/05/15 02:02:17;;;;;;;14.33;5.80;;;9.80;65.20;;;;;;5050358;28;46396;-61
2022/05/15 02:04:43;;;;;;;13.23;6.00;;;9.80;65.20;;;;;;5044122;28;48141;-62
2022/05/15 02:07:08;;;;;;;9.70;5.83;;;9.80;65.20;;;;;;5047962;28;46650;-62
2022/05/15 02:09:34;;;;;;;8.67;5.83;;;9.80;65.20;;;;;;5046140;28;45970;-62
2022/05/15 02:12:00;;;;;;;8.10;6.47;;;9.80;65.20;;;;;;5047630;28;46419;-61
2022/05/15 02:14:26;;;;;;;7.33;5.43;;;9.80;65.20;;;;;;5056708;28;46392;-61
2022/05/15 02:16:51;;;;;;;11.67;6.10;;;9.80;65.20;;;;;;5058761;28;46337;-63
2022/05/15 02:19:18;;;;;;;9.03;6.30;;;9.70;65.20;;;;;;5052721;28;46375;-62
2022/05/15 02:21:47;;;;;;;10.30;6.00;;;9.70;65.20;;;;;;5056028;28;46388;-62
2022/05/15 02:24:14;;;;;;;7.87;4.97;;;9.80;65.20;;;;;;5055182;28;46937;-62
2022/05/15 02:26:39;;;;;;;8.20;5.70;;;9.70;65.20;;;;;;5052496;28;46327;-63
2022/05/15 02:29:06;;;;;;;10.73;5.67;;;9.70;65.20;;;;;;5056155;28;46380;-63
2022/05/15 02:31:32;;;;;;;6.37;4.57;;;9.60;65.50;;;;;;5051576;28;46446;-63
2022/05/15 02:34:01;;;;;;;9.50;5.83;;;9.60;65.70;;;;;;5054132;28;46334;-63
2022/05/15 02:36:27;;;;;;;6.73;5.33;;;9.60;65.70;;;;;;5052481;28;46871;-62
2022/05/15 02:38:53;;;;;;;12.60;5.73;;;9.50;65.70;;;;;;5049876;28;46432;-62
2022/05/15 02:41:19;;;;;;;10.60;5.13;;;9.50;65.80;;;;;;5051888;28;46666;-62
2022/05/15 02:43:44;;;;;;;7.43;4.60;;;9.50;65.80;;;;;;5050320;28;46423;-62
2022/05/15 02:46:10;;;;;;;6.37;4.37;;;9.40;65.90;;;;;;5051932;28;46397;-63
2022/05/15 02:51:20;;;;;;;8.83;5.27;;;9.40;66.10;;;;;;5048664;28;46401;-63
2022/05/15 02:53:46;;;;;;;7.47;5.30;;;9.40;66.10;;;;;;5053155;28;46370;-63
2022/05/15 02:56:17;;;;;;;6.80;4.33;;;9.30;66.10;;;;;;5049429;28;46538;-63
2022/05/15 02:58:43;;;;;;;12.07;5.60;;;9.30;66.30;;;;;;5049023;28;46486;-63
2022/05/15 03:01:09;;;;;;;20.93;5.60;;;9.20;66.40;;;;;;5051616;28;46286;-63
2022/05/15 03:03:35;;;;;;;6.20;4.43;;;9.20;66.50;;;;;;5048831;28;47318;-61
2022/05/15 03:06:00;;;;;;;7.00;5.17;;;9.20;66.70;;;;;;5051792;28;46426;-62
2022/05/15 03:08:26;;;;;;;8.17;5.30;;;9.20;66.60;;;;;;5046345;28;46414;-62
2022/05/15 03:10:52;;;;;;;10.07;5.20;;;9.20;66.70;;;;;;5052999;28;46778;-62
2022/05/15 03:13:18;;;;;;;9.63;5.43;;;9.20;66.60;;;;;;5047838;28;46306;-62
2022/05/15 03:15:43;;;;;;;8.13;4.70;;;9.10;66.60;;;;;;5046560;28;46260;-62
2022/05/15 03:18:09;;;;;;;7.30;4.70;;;9.20;66.70;;;;;;5053724;28;46569;-62
2022/05/15 03:20:34;;;;;;;8.10;5.23;;;9.10;67.80;;;;;;5057389;28;46452;-62
2022/05/15 03:23:00;;;;;;;11.30;5.97;;;9.20;66.80;;;;;;5048308;28;47329;-62
2022/05/15 03:25:27;;;;;;;12.77;6.07;;;9.20;66.80;;;;;;5054542;28;46785;-63
2022/05/15 03:27:54;;;;;;;9.33;5.27;;;9.20;67.00;;;;;;5055053;28;46395;-62
2022/05/15 03:30:21;;;;;;;6.87;5.40;;;9.20;67.00;;;;;;5054036;28;46417;-62
2022/05/15 03:32:46;;;;;;;6.93;5.20;;;9.20;67.00;;;;;;5048704;28;46362;-63
2022/05/15 03:35:14;;;;;;;8.80;5.10;;;9.20;67.00;;;;;;5056955;28;46319;-64
2022/05/15 03:37:40;;;;;;;9.40;5.37;;;9.20;67.00;;;;;;5047392;28;46330;-63
2022/05/15 03:40:08;;;;;;;7.33;4.90;;;9.20;67.00;;;;;;5053282;28;46613;-63
2022/05/15 03:42:34;;;;;;;8.07;5.40;;;9.30;67.00;;;;;;5050619;28;46912;-63
2022/05/15 03:45:00;;;;;;;9.37;4.53;;;9.30;66.80;;;;;;5054035;28;45978;-62
2022/05/15 03:47:26;;;;;;;7.70;5.00;;;9.40;66.90;;;;;;5053939;28;46393;-62
2022/05/15 03:49:53;;;;;;;7.80;4.57;;;9.40;66.70;;;;;;5050051;28;46564;-62
2022/05/15 03:52:19;;;;;;;9.23;5.47;;;9.40;66.70;;;;;;5049554;28;46933;-62
2022/05/15 03:54:46;;;;;;;6.83;4.80;;;9.50;66.50;;;;;;5049641;28;46526;-62
2022/05/15 03:57:12;;;;;;;7.17;5.10;;;9.50;66.40;;;;;;5048132;28;46477;-61
2022/05/15 03:59:40;;;;;;;6.27;4.40;;;9.50;66.30;;;;;;5049928;28;46415;-62
2022/05/15 04:02:08;;;;;;;5.10;4.23;;;9.60;66.40;;;;;;5048456;28;47347;-62
2022/05/15 04:04:34;;;;;;;8.77;4.80;;;9.60;66.40;;;;;;5046343;28;46309;-63
2022/05/15 04:07:01;;;;;;;5.60;4.10;;;9.60;66.20;;;;;;5050818;28;46492;-62
2022/05/15 04:09:28;;;;;;;6.67;4.10;;;9.70;66.20;;;;;;5046493;28;46418;-61
2022/05/15 04:11:54;;;;;;;4.40;3.47;;;9.70;66.30;;;;;;5048499;28;46787;-63
2022/05/15 04:14:20;;;;;;;8.40;3.57;;;9.70;66.30;;;;;;5048880;28;45984;-63
2022/05/15 04:16:46;;;;;;;6.00;3.60;;;9.70;66.20;;;;;;5049645;28;46438;-64
2022/05/15 04:19:12;;;;;;;6.17;4.53;;;9.80;66.10;;;;;;5048402;28;46323;-63
2022/05/15 04:21:40;;;;;;;6.30;4.27;;;9.80;65.90;;;;;;5049708;28;47169;-63
2022/05/15 04:24:08;;;;;;;5.60;3.73;;;9.80;65.90;;;;;;5044980;28;46469;-63
2022/05/15 04:26:35;;;;;;;5.17;3.73;;;9.80;65.80;;;;;;5048065;28;46494;-63
2022/05/15 04:29:01;;;;;;;9.63;4.27;;;9.90;65.80;;;;;;5047477;28;46339;-64
2022/05/15 04:31:27;;;;;;;6.27;3.90;;;10.00;64.70;;;;;;5049659;28;46364;-63
2022/05/15 04:33:53;;;;;;;9.50;4.27;;;10.00;64.40;;;;;;5046204;28;46388;-63
2022/05/15 04:36:18;;;;;;;6.80;3.90;;;10.10;64.50;;;;;;5049938;28;46349;-63
2022/05/15 04:38:44;;;;;;;10.90;4.77;;;10.20;64.70;;;;;;5045740;28;46468;-63
2022/05/15 04:41:10;;;;;;;5.80;4.03;;;10.30;64.70;;;;;;5048000;28;47231;-63
2022/05/15 04:43:35;;;;;;;14.63;5.03;;;10.40;64.40;;;;;;5052714;28;46391;-63
2022/05/15 04:46:07;;;;;;;13.00;5.40;;;10.50;64.30;;;;;;5057920;28;46341;-63
2022/05/15 04:48:36;;;;;;;6.80;3.90;;;10.70;64.10;;;;;;5050621;28;46445;-63
2022/05/15 04:51:03;;;;;;;4.10;2.90;;;11.40;64.10;;;;;;5055686;28;48239;-63
2022/05/15 04:53:30;;;;;;;4.70;3.13;;;13.00;63.70;;;;;;5049904;28;46604;-62
2022/05/15 04:55:55;;;;;;;5.93;2.83;;;14.60;60.40;;;;;;5053031;28;46090;-62
2022/05/15 04:58:21;;;;;;;5.10;2.90;;;16.10;56.80;;;;;;5054773;28;46656;-63
2022/05/15 05:00:46;;;;;;;9.63;3.50;;;17.30;53.20;;;;;;5051790;28;46414;-62
2022/05/15 05:03:15;;;;;;;6.00;3.20;;;18.30;51.70;;;;;;5058387;28;46414;-63
2022/05/15 05:05:41;;;;;;;8.73;3.93;;;19.40;47.70;;;;;;5049202;28;46759;-63
2022/05/15 05:08:10;;;;;;;4.53;3.37;;;20.30;45.80;;;;;;5051092;28;46484;-63
2022/05/15 05:10:36;;;;;;;6.40;3.30;;;21.10;43.50;;;;;;5048596;28;46306;-64
2022/05/15 05:13:02;;;;;;;5.50;3.17;;;21.70;42.20;;;;;;5046271;28;46505;-62
2022/05/15 05:15:28;;;;;;;4.13;3.00;;;22.50;40.30;;;;;;5050711;28;46481;-62
2022/05/15 05:17:55;;;;;;;6.63;3.90;;;23.10;38.20;;;;;;5048295;28;46669;-62
2022/05/15 05:20:21;;;;;;;6.87;3.40;;;23.70;37.10;;;;;;5046648;28;46424;-62
2022/05/15 05:22:46;;;;;;;5.87;3.33;;;24.20;35.20;;;;;;5050002;28;45800;-62
2022/05/15 05:25:13;;;;;;;5.20;3.23;;;24.50;34.00;;;;;;5045843;28;46373;-63
2022/05/15 05:27:41;;;;;;;6.13;3.00;;;25.00;32.80;;;;;;5049842;28;46146;-62
2022/05/15 05:30:10;;;;;;;6.57;3.70;;;25.20;31.60;;;;;;5044800;28;46976;-62
2022/05/15 05:32:36;;;;;;;4.30;3.27;;;25.80;30.10;;;;;;5045970;28;45914;-63
2022/05/15 05:35:04;;;;;;;5.30;3.90;;;26.30;28.90;;;;;;5049524;28;46477;-62
2022/05/15 05:37:30;;;;;;;6.30;4.03;;;26.70;26.90;;;;;;5043393;28;46603;-62
2022/05/15 05:39:56;;;;;;;7.23;4.57;;;27.00;27.00;;;;;;5050158;28;47269;-62
2022/05/15 05:42:21;;;;;;;10.53;4.07;;;27.30;25.40;;;;;;5044282;28;46395;-63
2022/05/15 05:44:47;;;;;;;7.03;4.47;;;27.40;24.70;;;;;;5043594;28;46649;-62
2022/05/15 05:47:13;;;;;;;7.10;4.30;;;27.40;24.20;;;;;;5054132;28;46756;-63
2022/05/15 05:49:38;;;;;;;6.13;4.00;;;27.60;23.70;;;;;;5057996;28;47070;-62
2022/05/15 05:52:04;;;;;;;8.13;4.00;;;27.80;23.50;;;;;;5052943;28;46747;-62
2022/05/15 05:54:30;;;;;;;6.80;3.90;;;27.90;23.10;;;;;;5057958;28;46507;-61
2022/05/15 05:56:58;;;;;;;8.30;3.70;;;28.00;22.80;;;;;;5052494;28;46617;-61
2022/05/15 05:59:24;;;;;;;6.73;4.37;;;28.10;22.30;;;;;;5050650;28;47008;-61
2022/05/15 06:01:49;;;;;;;5.87;3.97;;;28.20;22.00;;;;;;5052868;28;45717;-61
2022/05/15 06:06:59;;;;;;;10.70;4.30;;;28.30;21.50;;;;;;5051400;28;46300;-61
2022/05/15 06:09:25;;;;;;;10.07;4.13;;;28.30;21.50;;;;;;5054531;28;46851;-61
2022/05/15 06:11:50;;;;;;;6.70;3.10;;;28.30;21.40;;;;;;5048975;28;47177;-63
2022/05/15 06:14:16;;;;;;;4.93;3.37;;;28.40;21.70;;;;;;5055029;28;45767;-61
2022/05/15 06:16:41;;;;;;;5.00;3.83;;;27.20;24.70;;;;;;5051873;28;46315;-60
2022/05/15 06:19:08;;;;;;;6.90;4.00;;;25.80;28.00;;;;;;5051946;28;46290;-61
2022/05/15 06:21:34;;;;;;;6.23;3.83;;;24.80;30.50;;;;;;5056196;28;45798;-61
2022/05/15 06:23:59;;;;;;;12.93;3.83;;;24.10;32.70;;;;;;5047102;28;46334;-62
2022/05/15 06:26:25;;;;;;;6.07;3.87;;;24.20;31.60;;;;;;5057202;28;46397;-62
2022/05/15 06:28:50;;;;;;;5.90;4.20;;;24.80;28.80;;;;;;5050593;28;47772;-61
2022/05/15 06:31:16;;;;;;;9.50;4.33;;;24.70;28.80;;;;;;5053993;28;46329;-63
2022/05/15 06:33:41;;;;;;;8.13;4.80;;;24.20;30.20;;;;;;5053928;28;46378;-62
2022/05/15 06:36:07;;;;;;;7.77;4.80;;;23.60;32.20;;;;;;5053286;28;46512;-62
2022/05/15 06:38:33;;;;;;;9.30;5.30;;;23.30;33.00;;;;;;5053198;28;45952;-63
2022/05/15 06:40:58;;;;;;;6.67;4.67;;;22.90;34.40;;;;;;5049814;28;46454;-62
2022/05/15 06:43:24;;;;;;;10.10;4.90;;;22.70;35.30;;;;;;5052993;28;46330;-62
2022/05/15 06:45:50;;;;;;;7.20;4.47;;;22.30;36.10;;;;;;5067303;28;46695;-62
2022/05/15 06:48:16;;;;;;;7.90;4.97;;;22.20;36.10;;;;;;5053166;28;47217;-62
2022/05/15 06:50:41;;;;;;;7.00;4.33;;;22.00;35.90;;;;;;5051002;28;46388;-63
2022/05/15 06:53:13;;;;;;;8.80;4.17;;;21.80;37.30;;;;;;5051357;28;45823;-62
2022/05/15 06:58:24;;;;;;;10.93;4.97;;;21.80;37.10;;;;;;5047351;28;46252;-61
2022/05/15 07:00:49;;;;;;;8.83;4.60;;;21.70;36.60;;;;;;5049962;28;46587;-61
2022/05/15 07:03:15;;;;;;;9.50;4.90;;;21.70;35.90;;;;;;5049398;28;46484;-61
2022/05/15 07:05:40;;;;;;;9.57;5.07;;;21.70;35.60;;;;;;5049773;28;46258;-61
2022/05/15 07:08:08;;;;;;;9.10;4.83;;;21.50;35.50;;;;;;5047376;28;46373;-62
2022/05/15 07:10:34;;;;;;;9.17;5.50;;;21.30;35.20;;;;;;5051909;28;46430;-62
2022/05/15 07:12:59;;;;;;;10.50;5.10;;;21.30;35.20;;;;;;5050227;28;46774;-61
2022/05/15 07:15:25;;;;;;;9.10;4.87;;;21.10;35.00;;;;;;5054896;28;46652;-62
2022/05/15 07:17:50;;;;;;;7.60;4.80;;;20.90;34.90;;;;;;5053984;28;46365;-61
2022/05/15 07:20:16;;;;;;;9.33;5.43;;;20.80;34.80;;;;;;5057131;28;46375;-61
2022/05/15 07:22:42;;;;;;;13.90;5.43;;;20.70;35.40;;;;;;5050582;28;46424;-61
2022/05/15 07:25:07;;;;;;;23.20;5.63;;;20.80;34.80;;;;;;5056400;28;46593;-61
2022/05/15 07:27:33;;;;;;;15.13;6.30;;;20.90;34.90;;;;;;5051408;28;46333;-61
2022/05/15 07:29:59;;;;;;;7.13;5.17;;;20.90;34.90;;;;;;5050564;28;46448;-61
2022/05/15 07:32:24;;;;;;;7.60;5.03;;;21.00;35.00;;;;;;5054816;28;46529;-61
2022/05/15 07:34:50;;;;;;;8.40;6.00;;;21.00;35.00;;;;;;5048406;28;46373;-61
2022/05/15 07:37:17;;;;;;;9.90;5.60;;;20.80;34.90;;;;;;5053496;28;46314;-61
2022/05/15 07:39:42;;;;;;;10.90;5.93;;;20.80;35.70;;;;;;5049658;28;46450;-61
2022/05/15 07:42:08;;;;;;;13.93;6.13;;;20.60;36.30;;;;;;5049442;28;46330;-61
2022/05/15 07:44:34;;;;;;;11.20;6.10;;;20.40;36.90;;;;;;5051829;28;46496;-63
2022/05/15 07:47:00;;;;;;;11.43;6.53;;;20.40;37.10;;;;;;5048218;28;46390;-62
2022/05/15 07:49:25;;;;;;;13.90;6.37;;;20.60;37.10;;;;;;5051012;28;46453;-61
2022/05/15 07:51:51;;;;;;;10.63;6.43;;;20.70;37.40;;;;;;5050997;28;46485;-61
2022/05/15 07:54:18;;;;;;;8.30;6.30;;;20.70;37.20;;;;;;5045783;28;46507;-61
2022/05/15 07:56:44;;;;;;;15.10;6.20;;;20.60;37.40;;;;;;5053156;28;47054;-61
2022/05/15 07:59:11;;;;;;;10.40;6.10;;;20.70;37.20;;;;;;5045140;28;46249;-61
2022/05/15 08:01:38;;;;;;;10.13;5.90;;;20.60;37.40;;;;;;5050679;28;46542;-61
2022/05/15 08:04:04;;;;;;;9.27;5.73;;;20.60;37.40;;;;;;5048302;28;46379;-61
2022/05/15 08:09:14;;;;;;;16.93;5.50;;;21.00;37.30;;;;;;5049827;28;46442;-61
2022/05/15 08:11:40;;;;;;;12.57;5.47;;;21.10;37.00;;;;;;5054271;28;46401;-61
2022/05/15 08:14:08;;;;;;;9.43;4.63;;;21.20;36.80;;;;;;5048694;28;46609;-61
2022/05/15 08:16:35;;;;;;;7.20;4.87;;;21.50;36.00;;;;;;5051826;28;46430;-61
2022/05/15 08:24:30;;;;;;;7.33;4.63;;;21.30;35.70;;;;;;5049162;28;46738;-61
2022/05/15 08:26:56;;;;;;;13.40;5.17;;;21.40;35.40;;;;;;5049236;28;46232;-61
2022/05/15 08:29:22;;;;;;;9.00;4.07;;;21.40;35.30;;;;;;5047340;28;46817;-62
2022/05/15 08:31:48;;;;;;;7.23;4.03;;;21.60;35.50;;;;;;5057286;28;46262;-65
2022/05/15 08:34:14;;;;;;;9.33;4.57;;;21.60;35.50;;;;;;5049510;28;46188;-63
2022/05/15 08:36:42;;;;;;;7.40;4.37;;;21.80;35.50;;;;;;5046012;28;46732;-63
2022/05/15 08:39:08;;;;;;;10.03;4.30;;;21.90;34.40;;;;;;5048312;28;46424;-61
2022/05/15 08:42:01;;;;;;;9.37;4.67;;;21.80;34.50;;;;;;5049142;28;46501;-62
2022/05/15 08:44:33;;;;;;;10.27;4.83;;;21.80;34.60;;;;;;5049606;28;46399;-61
2022/05/15 08:47:17;;;;;;;8.53;4.53;;;21.80;34.80;;;;;;5045912;28;46986;-62
2022/05/15 08:49:58;;;;;;;8.37;3.77;;;22.00;34.50;;;;;;5050819;28;46385;-62
2022/05/15 08:52:33;;;;;;;5.80;3.60;;;22.30;33.50;;;;;;5046825;28;46416;-62
2022/05/15 08:55:07;;;;;;;7.50;3.80;;;22.60;33.00;;;;;;5052358;28;46313;-62
2022/05/15 08:57:44;;;;;;;7.13;4.20;;;22.60;32.80;;;;;;5046504;28;46034;-60
2022/05/15 09:00:14;;;;;;;9.83;4.17;;;22.70;32.60;;;;;;5049077;28;46355;-61
2022/05/15 09:02:42;;;;;;;6.40;3.17;;;22.70;32.80;;;;;;5048502;28;46434;-61
2022/05/15 09:05:08;;;;;;;7.37;2.90;;;22.80;32.20;;;;;;5049723;28;46416;-61
2022/05/15 09:07:49;;;;;;;7.17;2.87;;;22.90;30.30;;;;;;5048658;28;46516;-61
2022/05/15 09:10:47;;;;;;;10.60;3.00;;;22.90;29.40;;;;;;5050263;28;46443;-61
2022/05/15 09:13:42;;;;;;;6.27;3.00;;;23.00;29.40;;;;;;5048824;28;46374;-61
2022/05/15 09:16:21;;;;;;;8.30;3.70;;;22.90;29.50;;;;;;5047769;28;47086;-61
2022/05/15 09:18:46;;;;;;;5.13;2.90;;;22.60;29.60;;;;;;5046699;28;46689;-62
2022/05/15 09:21:14;;;;;;;4.87;2.77;;;22.60;29.30;;;;;;5049120;28;46382;-61
2022/05/15 09:23:53;;;;;;;6.80;3.37;;;22.40;28.70;;;;;;5048589;28;46723;-62
2022/05/15 09:26:20;;;;;;;10.03;2.80;;;22.50;29.40;;;;;;5047549;28;46509;-62
2022/05/15 09:28:55;;;;;;;4.90;3.20;;;22.70;28.20;;;;;;5047383;28;47310;-62
2022/05/15 09:31:30;;;;;;;7.30;3.10;;;22.80;28.10;;;;;;5046713;28;46393;-62
2022/05/15 09:34:01;;;;;;;5.10;2.80;;;22.80;28.50;;;;;;5050004;28;45766;-62
2022/05/15 09:36:35;;;;;;;6.50;2.10;;;23.00;26.80;;;;;;5046350;28;46476;-61
2022/05/15 09:39:26;;;;;;;6.07;2.50;;;23.00;26.20;;;;;;5048295;28;46517;-61
2022/05/15 09:45:16;;;;;;;6.30;2.10;;;23.10;25.90;;;;;;5045112;28;46404;-61
2022/05/15 09:48:00;;;;;;;8.90;2.67;;;23.30;24.80;;;;;;5048311;28;46326;-62
2022/05/15 09:50:51;;;;;;;4.83;1.93;;;23.10;24.00;;;;;;5046346;28;46398;-61
2022/05/15 09:53:44;;;;;;;4.37;2.00;;;22.90;23.00;;;;;;5053463;28;46421;-62
2022/05/15 09:56:13;;;;;;;8.07;2.53;;;22.80;22.70;;;;;;5048804;28;46351;-62
2022/05/15 09:58:40;;;;;;;6.20;1.90;;;23.10;22.60;;;;;;5049304;28;46483;-61
2022/05/15 10:01:20;;;;;;;5.10;2.17;;;23.20;22.10;;;;;;5050219;28;46032;-62
2022/05/15 10:03:52;;;;;;;3.87;2.23;;;23.30;21.50;;;;;;5046815;28;46487;-62
2022/05/15 10:06:20;;;;;;;6.47;2.40;;;23.20;21.70;;;;;;5052352;28;46717;-62
2022/05/15 10:09:04;;;;;;;6.27;1.93;;;23.30;21.80;;;;;;5046736;28;46463;-61
2022/05/15 10:11:31;;;;;;;6.93;2.00;;;23.50;21.80;;;;;;5050557;28;46723;-62
2022/05/15 10:13:59;;;;;;;4.43;1.80;;;23.70;21.70;;;;;;5047579;28;46751;-61
2022/05/15 10:16:28;;;;;;;4.73;2.40;;;23.60;20.90;;;;;;5046930;28;45967;-62
2022/05/15 10:19:09;;;;;;;7.33;2.27;;;23.50;21.00;;;;;;5049053;28;46540;-61
2022/05/15 10:22:03;;;;;;;3.40;2.00;;;23.50;20.20;;;;;;5045083;28;47323;-61
2022/05/15 10:24:37;;;;;;;8.70;2.07;;;23.70;20.90;;;;;;5049554;28;45776;-61
2022/05/15 10:27:10;;;;;;;5.70;2.03;;;23.70;20.50;;;;;;5043704;28;46354;-61
2022/05/15 10:29:51;;;;;;;4.63;2.00;;;23.70;20.50;;;;;;5046060;28;46427;-60
2022/05/15 10:32:26;;;;;;;5.17;2.10;;;23.70;20.40;;;;;;5042418;28;46220;-61
2022/05/15 10:34:53;;;;;;;4.10;2.00;;;23.50;20.20;;;;;;5045346;28;46393;-60
2022/05/15 10:37:49;;;;;;;4.23;1.70;;;23.40;20.50;;;;;;5046184;28;46315;-60
2022/05/15 10:40:14;;;;;;;3.00;1.67;;;23.60;20.60;;;;;;5047871;28;46781;-60
2022/05/15 10:43:14;;;;;;;5.93;2.10;;;23.60;20.90;;;;;;5049593;28;47765;-60
2022/05/15 10:45:58;;;;;;;10.07;2.30;;;23.50;20.80;;;;;;5047236;28;46306;-60
2022/05/15 10:48:30;;;;;;;5.90;2.00;;;23.50;21.00;;;;;;5045314;28;46372;-60
2022/05/15 10:51:16;;;;;;;4.27;1.77;;;23.50;21.00;;;;;;5048204;28;47577;-60
2022/05/15 10:57:26;;;;;;;4.60;1.83;;;23.70;20.60;;;;;;5049350;28;46399;-60
2022/05/15 11:00:07;;;;;;;16.93;2.20;;;23.80;20.20;;;;;;5053341;28;46494;-61
2022/05/15 11:03:09;;;;;;;6.20;2.03;;;23.90;19.80;;;;;;5051315;28;46616;-61
2022/05/15 11:05:50;;;;;;;5.57;1.80;;;24.00;19.50;;;;;;5048612;28;46379;-61
2022/05/15 11:08:31;;;;;;;5.20;1.93;;;24.00;18.70;;;;;;5047244;28;46797;-60
2022/05/15 11:11:08;;;;;;;9.37;2.20;;;23.90;18.30;;;;;;5047522;28;46882;-61
2022/05/15 11:13:46;;;;;;;6.77;1.70;;;24.00;18.50;;;;;;5046708;28;46544;-61
2022/05/15 11:16:31;;;;;;;6.10;1.90;;;24.10;17.50;;;;;;5050049;28;46742;-60
2022/05/15 11:19:13;;;;;;;5.93;1.90;;;24.00;17.50;;;;;;5044442;28;46511;-60
2022/05/15 11:22:21;;;;;;;4.80;1.50;;;24.10;17.40;;;;;;5050412;28;46293;-61
2022/05/15 11:25:11;;;;;;;4.17;1.70;;;24.20;17.00;;;;;;5042863;28;46390;-60
2022/05/15 11:27:57;;;;;;;4.83;1.57;;;24.30;17.10;;;;;;5048887;28;46510;-60
2022/05/15 11:30:36;;;;;;;4.33;1.90;;;24.30;16.90;;;;;;5044364;28;46455;-60
2022/05/15 11:33:08;;;;;;;7.00;1.90;;;24.30;16.70;;;;;;5050756;28;46493;-61
2022/05/15 11:35:40;;;;;;;4.10;1.60;;;24.30;16.70;;;;;;5046486;28;47253;-59
2022/05/15 11:38:27;;;;;;;4.83;1.50;;;24.30;16.00;;;;;;5049217;28;46111;-60
2022/05/15 11:40:53;;;;;;;9.13;2.30;;;24.20;16.00;;;;;;5047063;28;46441;-60
2022/05/15 11:43:31;;;;;;;4.80;1.80;;;24.20;16.00;;;;;;5051465;28;46485;-62
2022/05/15 11:46:04;;;;;;;3.83;1.80;;;24.00;16.00;;;;;;5047129;28;46992;-60
2022/05/15 11:48:43;;;;;;;5.23;1.60;;;23.90;16.10;;;;;;5046028;28;46379;-61
2022/05/15 11:51:14;;;;;;;3.80;1.87;;;23.90;16.60;;;;;;5047064;28;46427;-61
2022/05/15 11:54:07;;;;;;;9.33;2.00;;;24.10;16.10;;;;;;5047356;28;46669;-61
2022/05/15 11:56:51;;;;;;;3.60;1.70;;;24.20;16.00;;;;;;5051011;28;46422;-61
2022/05/15 11:59:27;;;;;;;3.97;1.70;;;24.50;15.90;;;;;;5048579;28;47166;-60
2022/05/15 12:02:00;;;;;;;4.50;1.80;;;24.50;15.20;;;;;;5052240;28;45789;-61
2022/05/15 12:04:35;;;;;;;4.63;1.80;;;24.40;14.70;;;;;;5047108;28;46481;-62
2022/05/15 12:07:00;;;;;;;5.40;2.00;;;24.30;14.60;;;;;;5051310;28;46713;-60
2022/05/15 12:09:41;;;;;;;2.80;1.60;;;24.40;15.20;;;;;;5051854;28;46455;-61
2022/05/15 12:12:27;;;;;;;4.40;1.70;;;24.60;15.20;;;;;;5049245;28;46501;-61
2022/05/15 12:15:13;;;;;;;7.80;2.13;;;24.90;14.90;;;;;;5045663;28;46484;-61
2022/05/15 12:17:42;;;;;;;4.60;1.40;;;25.00;14.90;;;;;;5056817;28;46469;-60
2022/05/15 12:20:15;;;;;;;3.50;1.93;;;25.00;14.90;;;;;;5049670;28;46499;-61
2022/05/15 12:22:50;;;;;;;5.97;1.73;;;25.20;14.90;;;;;;5051098;28;46333;-60
2022/05/15 12:25:17;;;;;;;5.90;1.93;;;25.10;14.90;;;;;;5049607;28;46720;-61
2022/05/15 12:30:47;;;;;;;7.87;1.67;;;24.80;14.70;;;;;;5045648;28;46546;-62
2022/05/15 12:33:13;;;;;;;10.77;2.03;;;24.70;14.60;;;;;;5046276;28;46401;-61
2022/05/15 12:35:43;;;;;;;6.87;1.90;;;24.70;14.70;;;;;;5043707;28;46512;-61
2022/05/15 12:38:12;;;;;;;4.23;1.80;;;24.60;14.30;;;;;;5046509;28;46170;-61
2022/05/15 12:40:55;;;;;;;5.63;1.93;;;24.60;14.60;;;;;;5044682;28;47224;-61
2022/05/15 12:43:34;;;;;;;6.37;2.00;;;24.60;14.30;;;;;;5050278;28;46362;-61
2022/05/15 12:46:01;;;;;;;4.90;1.97;;;24.60;14.60;;;;;;5050790;28;46364;-61
2022/05/15 12:48:31;;;;;;;4.30;1.87;;;24.50;14.50;;;;;;5047498;28;46383;-61
2022/05/15 12:51:03;;;;;;;8.70;1.60;;;24.40;14.50;;;;;;5047091;28;46687;-61
2022/05/15 12:53:48;;;;;;;6.43;1.60;;;24.50;14.50;;;;;;5049049;28;46460;-61
2022/05/15 12:56:27;;;;;;;5.57;2.40;;;24.40;14.50;;;;;;5045482;28;46356;-60
2022/05/15 12:59:12;;;;;;;5.00;1.60;;;24.60;14.60;;;;;;5047464;28;46622;-61
2022/05/15 13:01:37;;;;;;;5.23;1.90;;;24.70;14.70;;;;;;5056550;28;46698;-60
2022/05/15 13:04:06;;;;;;;10.00;1.63;;;24.70;14.70;;;;;;5049762;28;46802;-60
2022/05/15 13:06:38;;;;;;;7.13;1.90;;;24.60;14.60;;;;;;5053681;28;45855;-62
2022/05/15 13:09:06;;;;;;;5.70;1.93;;;24.60;15.60;;;;;;5053672;28;46715;-60
2022/05/15 13:11:48;;;;;;;3.70;1.90;;;24.60;14.60;;;;;;5051345;28;46842;-61
2022/05/15 13:14:34;;;;;;;6.27;2.00;;;24.60;14.60;;;;;;5055510;28;46330;-61
2022/05/15 13:17:01;;;;;;;4.20;1.73;;;24.60;14.60;;;;;;5048765;28;46760;-60
2022/05/15 13:19:33;;;;;;;8.90;1.97;;;24.60;14.60;;;;;;5051193;28;46734;-61
2022/05/15 13:22:00;;;;;;;7.70;1.87;;;24.70;14.70;;;;;;5045717;28;46563;-59
2022/05/15 13:24:28;;;;;;;6.17;1.97;;;24.80;14.70;;;;;;5048681;28;46666;-61
2022/05/15 13:26:56;;;;;;;4.60;1.53;;;24.80;15.70;;;;;;5049315;28;46471;-62